Time;durP1;ratioP1;P1;durP2;ratioP2;P2;SDS_P1;SDS_P2;PMS_P1;PMS_P2;Temp;Humidity;BMP_temperature;BMP_pressure;BME280_temperature;BME280_humidity;BME280_pressure;Samples;Min_cycle;Max_cycle;Signal;HPM_P1;HPM_P2
2022/08/09 00:01:49;;;;;;;7.10;3.17;;;27.50;99.90;;;;;;4129759;28;20050;-66
2022/08/09 00:03:58;;;;;;;3.63;2.70;;;27.60;99.90;;;;;;4129912;28;20046;-66
2022/08/09 00:06:22;;;;;;;5.25;3.50;;;27.60;99.90;;;;;;4129444;28;20046;-66
2022/08/09 00:08:27;;;;;;;5.38;4.00;;;27.60;99.90;;;;;;4129570;28;20042;-65
2022/08/09 00:10:37;;;;;;;9.63;3.95;;;27.60;99.90;;;;;;4128207;28;20066;-66
2022/08/09 00:12:44;;;;;;;4.15;3.00;;;27.60;99.90;;;;;;4130052;28;20052;-66
2022/08/09 00:14:55;;;;;;;4.38;2.70;;;27.60;99.90;;;;;;4130377;28;20108;-66
2022/08/09 00:17:08;;;;;;;5.53;2.90;;;27.70;99.90;;;;;;4130588;28;20061;-66
2022/08/09 00:19:34;;;;;;;6.60;2.67;;;27.70;99.90;;;;;;4094452;28;20074;-67
2022/08/09 00:21:38;;;;;;;4.88;2.28;;;27.70;99.90;;;;;;4095866;29;20051;-65
2022/08/09 00:24:01;;;;;;;6.40;2.17;;;27.70;99.90;;;;;;4095618;29;20107;-66
2022/08/09 00:26:12;;;;;;;4.57;2.20;;;27.70;99.90;;;;;;4091254;29;20075;-66
2022/08/09 00:28:17;;;;;;;4.72;1.77;;;27.70;99.90;;;;;;4096345;28;20047;-66
2022/08/09 00:30:24;;;;;;;5.97;2.15;;;27.70;99.90;;;;;;4088221;28;20047;-66
2022/08/09 00:32:29;;;;;;;10.27;2.20;;;27.80;99.90;;;;;;4097009;28;20043;-66
2022/08/09 00:34:34;;;;;;;6.47;2.40;;;27.70;99.90;;;;;;4096646;28;20134;-66
2022/08/09 00:36:39;;;;;;;4.85;2.22;;;27.80;99.90;;;;;;4096150;28;20058;-66
2022/08/09 00:38:44;;;;;;;4.68;2.47;;;27.80;99.90;;;;;;4095970;29;20044;-66
2022/08/09 00:40:53;;;;;;;4.90;2.40;;;27.80;99.90;;;;;;4080807;29;20056;-66
2022/08/09 00:43:02;;;;;;;4.25;2.30;;;27.80;99.90;;;;;;4081156;29;20047;-67
2022/08/09 00:45:28;;;;;;;5.32;2.10;;;27.80;99.90;;;;;;4048996;29;20060;-66
2022/08/09 00:47:37;;;;;;;4.38;2.00;;;27.80;99.90;;;;;;4048964;29;20575;-65
2022/08/09 00:49:45;;;;;;;5.50;2.05;;;27.80;99.90;;;;;;4054986;29;20488;-66
2022/08/09 00:51:57;;;;;;;4.47;2.05;;;27.80;99.90;;;;;;4095341;28;20055;-66
2022/08/09 00:54:09;;;;;;;3.80;2.00;;;27.80;99.90;;;;;;4110559;28;20063;-67
2022/08/09 00:56:18;;;;;;;4.07;2.08;;;27.90;99.90;;;;;;4111027;28;20527;-67
2022/08/09 00:58:24;;;;;;;4.93;1.80;;;27.80;99.90;;;;;;4107516;28;20061;-67
2022/08/09 01:00:32;;;;;;;3.80;2.00;;;27.90;99.90;;;;;;4110486;28;20481;-67
2022/08/09 01:02:59;;;;;;;5.75;2.30;;;27.90;99.90;;;;;;4111586;28;20062;-67
2022/08/09 01:05:15;;;;;;;4.70;3.05;;;28.00;99.90;;;;;;4111596;28;20075;-67
2022/08/09 01:07:45;;;;;;;7.72;2.33;;;28.00;99.90;;;;;;4111351;28;20043;-67
2022/08/09 01:10:17;;;;;;;4.15;2.15;;;27.90;99.90;;;;;;4111405;28;20067;-66
2022/08/09 01:12:36;;;;;;;5.30;1.92;;;27.90;99.90;;;;;;4111635;28;20065;-67
2022/08/09 01:14:55;;;;;;;4.30;2.00;;;28.00;99.90;;;;;;4111339;28;20098;-66
2022/08/09 01:17:08;;;;;;;3.20;2.00;;;28.00;99.90;;;;;;4132369;28;20076;-67
2022/08/09 01:19:37;;;;;;;3.58;2.05;;;28.00;99.90;;;;;;4129424;28;20061;-66
2022/08/09 01:22:32;;;;;;;7.55;3.70;;;28.00;99.90;;;;;;4140120;28;20042;-67
2022/08/09 01:24:52;;;;;;;6.20;3.33;;;28.00;99.90;;;;;;4130373;28;20117;-66
2022/08/09 01:27:15;;;;;;;5.63;2.50;;;28.10;99.90;;;;;;4127731;28;20085;-66
2022/08/09 01:29:27;;;;;;;2.92;1.90;;;28.10;99.90;;;;;;4127355;28;20047;-66
2022/08/09 01:31:54;;;;;;;5.28;1.92;;;28.10;99.90;;;;;;4106747;28;20062;-67
2022/08/09 01:34:19;;;;;;;5.50;2.17;;;28.10;99.90;;;;;;4111748;28;20077;-67
2022/08/09 01:36:25;;;;;;;4.32;2.47;;;28.10;99.90;;;;;;4111507;28;20068;-67
2022/08/09 01:38:37;;;;;;;7.85;3.42;;;28.20;99.90;;;;;;4111410;28;20054;-66
2022/08/09 01:40:47;;;;;;;9.32;3.47;;;28.20;99.90;;;;;;4111641;28;20043;-66
2022/08/09 01:43:05;;;;;;;7.97;3.85;;;28.20;99.90;;;;;;4110964;28;20505;-66
2022/08/09 01:45:12;;;;;;;7.30;2.22;;;28.30;99.90;;;;;;4127646;28;20093;-66
2022/08/09 01:47:16;;;;;;;9.77;3.00;;;28.30;99.90;;;;;;4112193;28;20482;-67
2022/08/09 01:49:20;;;;;;;14.77;3.50;;;28.30;99.90;;;;;;4095358;29;20078;-67
2022/08/09 01:51:34;;;;;;;9.68;2.60;;;28.30;99.90;;;;;;4078948;29;20060;-67
2022/08/09 01:53:39;;;;;;;8.82;3.33;;;28.30;99.90;;;;;;4095002;28;20715;-67
2022/08/09 01:55:46;;;;;;;8.15;3.00;;;28.30;99.90;;;;;;4110816;28;20499;-66
2022/08/09 01:57:53;;;;;;;8.55;3.28;;;28.40;99.90;;;;;;4104975;28;20050;-67
2022/08/09 01:59:58;;;;;;;3.60;2.10;;;28.40;99.90;;;;;;4108829;28;20047;-66
2022/08/09 02:02:26;;;;;;;5.78;2.20;;;28.30;99.90;;;;;;4104548;28;20485;-67
2022/08/09 02:04:34;;;;;;;5.53;2.25;;;28.30;99.90;;;;;;4111433;28;20042;-69
2022/08/09 02:09:06;;;;;;;3.58;1.92;;;28.40;99.90;;;;;;4104423;28;20047;-67
2022/08/09 02:11:12;;;;;;;7.10;2.10;;;28.40;99.90;;;;;;4132665;28;20056;-67
2022/08/09 02:13:20;;;;;;;5.95;2.22;;;28.30;99.90;;;;;;4132547;28;20049;-66
2022/08/09 02:15:41;;;;;;;7.30;1.90;;;28.50;99.90;;;;;;4132265;28;20055;-66
2022/08/09 02:17:53;;;;;;;6.10;1.98;;;28.40;99.90;;;;;;4132111;28;20133;-66
2022/08/09 02:20:11;;;;;;;6.20;1.98;;;28.40;99.90;;;;;;4130676;28;20038;-66
2022/08/09 02:23:00;;;;;;;7.07;2.20;;;28.50;99.90;;;;;;4160282;28;20057;-66
2022/08/09 02:25:11;;;;;;;3.75;1.50;;;28.50;99.90;;;;;;4130205;28;20493;-68
2022/08/09 02:27:20;;;;;;;6.03;2.00;;;28.60;99.90;;;;;;4132410;28;20046;-67
2022/08/09 02:29:49;;;;;;;7.28;1.90;;;28.60;99.90;;;;;;4132542;28;20062;-67
2022/08/09 02:31:59;;;;;;;4.47;1.60;;;28.70;99.90;;;;;;4132554;28;20053;-67
2022/08/09 02:34:16;;;;;;;4.97;2.10;;;28.70;99.90;;;;;;4132314;28;20587;-67
2022/08/09 02:36:42;;;;;;;5.65;2.40;;;28.70;99.90;;;;;;4131723;28;20088;-67
2022/08/09 02:38:49;;;;;;;5.75;2.10;;;28.80;99.90;;;;;;4132694;28;20732;-67
2022/08/09 02:40:57;;;;;;;5.07;2.17;;;28.90;99.90;;;;;;4130919;28;20099;-66
2022/08/09 02:43:02;;;;;;;6.30;2.17;;;29.00;99.90;;;;;;4132308;28;20038;-66
2022/08/09 02:45:17;;;;;;;5.00;1.55;;;29.00;99.90;;;;;;4131693;28;20532;-66
2022/08/09 02:47:29;;;;;;;2.08;1.27;;;29.00;99.90;;;;;;4131713;28;20038;-67
2022/08/09 02:50:01;;;;;;;4.18;1.48;;;29.00;99.90;;;;;;4130557;28;20101;-66
2022/08/09 02:52:11;;;;;;;2.65;1.50;;;29.00;99.90;;;;;;4089132;28;20047;-66
2022/08/09 02:54:15;;;;;;;6.22;1.75;;;29.20;99.90;;;;;;4130717;28;20046;-66
2022/08/09 02:56:23;;;;;;;7.20;1.40;;;29.30;99.90;;;;;;4130283;28;20058;-66
2022/08/09 02:58:31;;;;;;;3.33;1.30;;;29.40;99.90;;;;;;4131746;28;20138;-66
2022/08/09 03:00:39;;;;;;;6.25;1.60;;;29.40;99.90;;;;;;4131415;28;20062;-66
2022/08/09 03:03:01;;;;;;;5.47;1.33;;;29.50;99.90;;;;;;4129098;28;20080;-67
2022/08/09 03:05:10;;;;;;;5.18;1.17;;;29.60;99.90;;;;;;4129125;28;20089;-67
2022/08/09 03:07:19;;;;;;;3.78;1.55;;;29.60;99.90;;;;;;4131426;28;20133;-67
2022/08/09 03:09:23;;;;;;;4.00;1.40;;;29.50;99.90;;;;;;4128745;28;20125;-67
2022/08/09 03:11:35;;;;;;;3.88;1.55;;;29.50;99.90;;;;;;4115011;28;20101;-67
2022/08/09 03:14:00;;;;;;;4.47;1.38;;;29.60;99.90;;;;;;4129901;28;20042;-67
2022/08/09 03:16:06;;;;;;;3.65;1.17;;;29.50;99.90;;;;;;4129139;28;20519;-66
2022/08/09 03:18:11;;;;;;;2.20;1.08;;;29.80;99.90;;;;;;4131109;28;20057;-66
2022/08/09 03:20:21;;;;;;;4.15;1.30;;;29.90;99.90;;;;;;4130825;28;20112;-66
2022/08/09 03:22:29;;;;;;;4.80;1.30;;;29.70;99.90;;;;;;4131452;28;20086;-66
2022/08/09 03:24:44;;;;;;;6.38;1.25;;;29.70;99.90;;;;;;4131663;28;20050;-66
2022/08/09 03:27:08;;;;;;;3.38;1.20;;;29.80;99.90;;;;;;4130903;28;20050;-66
2022/08/09 03:29:13;;;;;;;4.68;1.23;;;29.90;99.90;;;;;;4131588;28;20054;-67
2022/08/09 03:31:26;;;;;;;5.55;1.40;;;29.70;99.90;;;;;;4131330;28;20121;-67
2022/08/09 03:33:31;;;;;;;2.85;1.40;;;29.50;99.90;;;;;;4131629;28;20061;-66
2022/08/09 03:35:55;;;;;;;7.63;1.20;;;29.60;99.90;;;;;;4131006;28;20081;-67
2022/08/09 03:38:17;;;;;;;3.90;1.13;;;29.60;99.90;;;;;;4130698;28;20043;-67
2022/08/09 03:40:32;;;;;;;2.00;1.13;;;29.80;99.90;;;;;;4131341;28;20050;-66
2022/08/09 03:42:40;;;;;;;5.07;1.20;;;30.00;99.90;;;;;;4131270;28;20489;-67
2022/08/09 03:44:47;;;;;;;2.88;1.23;;;30.10;99.90;;;;;;4131343;28;20043;-67
2022/08/09 03:46:51;;;;;;;2.97;1.42;;;30.00;99.90;;;;;;4131125;28;20046;-67
2022/08/09 03:48:58;;;;;;;2.58;1.10;;;30.00;99.90;;;;;;4130145;28;20050;-67
2022/08/09 03:51:10;;;;;;;4.72;1.20;;;30.10;99.90;;;;;;4130747;28;20509;-67
2022/08/09 03:53:35;;;;;;;7.82;1.30;;;30.20;99.90;;;;;;4131184;28;20457;-67
2022/08/09 03:55:42;;;;;;;4.40;1.20;;;30.30;99.90;;;;;;4130947;28;20190;-68
2022/08/09 03:57:52;;;;;;;7.63;1.43;;;30.20;99.90;;;;;;4130970;28;20047;-67
2022/08/09 04:00:17;;;;;;;1.85;1.10;;;30.20;99.90;;;;;;4130716;28;20057;-67
2022/08/09 04:02:24;;;;;;;4.38;1.38;;;30.10;99.90;;;;;;4131043;28;20050;-67
2022/08/09 04:04:32;;;;;;;1.95;1.05;;;30.10;99.90;;;;;;4111744;28;20058;-67
2022/08/09 04:06:41;;;;;;;3.30;1.42;;;30.20;99.90;;;;;;4130612;28;20046;-66
2022/08/09 04:08:53;;;;;;;4.63;1.55;;;30.30;99.90;;;;;;4130651;28;20046;-67
2022/08/09 04:10:59;;;;;;;4.55;1.25;;;30.10;99.90;;;;;;4129170;28;20416;-67
2022/08/09 04:13:08;;;;;;;2.38;1.00;;;30.20;99.90;;;;;;4145100;28;20048;-67
2022/08/09 04:15:14;;;;;;;4.85;1.40;;;30.30;99.90;;;;;;4130394;28;20054;-67
2022/08/09 04:17:40;;;;;;;6.35;1.15;;;30.40;99.90;;;;;;4130632;28;20058;-68
2022/08/09 04:19:45;;;;;;;2.63;1.10;;;30.50;99.90;;;;;;4130443;28;20084;-68
2022/08/09 04:22:00;;;;;;;3.38;1.40;;;30.40;99.90;;;;;;4130586;28;20046;-68
2022/08/09 04:24:14;;;;;;;3.17;1.08;;;30.20;99.90;;;;;;4130820;28;20655;-68
2022/08/09 04:26:19;;;;;;;2.63;1.33;;;30.30;99.90;;;;;;4128578;28;20073;-67
2022/08/09 04:28:25;;;;;;;3.35;1.40;;;30.40;99.90;;;;;;4130239;28;20038;-67
2022/08/09 04:30:36;;;;;;;1.45;0.90;;;30.50;99.90;;;;;;4129671;28;20057;-67
2022/08/09 04:32:47;;;;;;;1.65;0.90;;;30.50;99.90;;;;;;4130785;28;20129;-67
2022/08/09 04:34:52;;;;;;;3.33;1.30;;;30.60;99.90;;;;;;4130255;28;20133;-67
2022/08/09 04:37:00;;;;;;;4.63;0.90;;;30.70;99.90;;;;;;4130276;28;20046;-67
2022/08/09 04:39:07;;;;;;;4.40;1.10;;;30.70;99.90;;;;;;4130225;28;20138;-67
2022/08/09 04:41:16;;;;;;;2.53;1.17;;;30.70;99.90;;;;;;4125334;28;20049;-67
2022/08/09 04:43:26;;;;;;;2.23;0.80;;;30.70;99.90;;;;;;4130224;28;20133;-68
2022/08/09 04:45:40;;;;;;;2.20;0.88;;;30.80;99.90;;;;;;4129855;28;20056;-68
2022/08/09 04:47:58;;;;;;;2.08;1.00;;;30.70;99.90;;;;;;4130564;28;20054;-66
2022/08/09 04:50:09;;;;;;;1.90;0.80;;;30.70;99.90;;;;;;4127728;28;20054;-66
2022/08/09 04:52:13;;;;;;;3.22;0.80;;;30.80;99.90;;;;;;4137120;28;20044;-67
2022/08/09 04:54:31;;;;;;;2.10;0.90;;;30.80;99.90;;;;;;4142251;28;20558;-66
2022/08/09 04:56:36;;;;;;;3.22;0.93;;;30.90;99.90;;;;;;4129913;28;20069;-64
2022/08/09 04:58:42;;;;;;;2.63;1.13;;;31.00;99.90;;;;;;4129949;28;20034;-66
2022/08/09 05:00:49;;;;;;;1.52;0.98;;;31.20;99.90;;;;;;4129251;28;20041;-65
2022/08/09 05:02:57;;;;;;;2.53;0.70;;;31.30;99.90;;;;;;4130272;28;20038;-67
2022/08/09 05:05:15;;;;;;;1.98;0.60;;;31.50;99.90;;;;;;4129661;28;20054;-66
2022/08/09 05:07:37;;;;;;;3.20;0.77;;;31.40;99.30;;;;;;4129407;28;20046;-67
2022/08/09 05:09:42;;;;;;;1.77;0.50;;;31.40;99.70;;;;;;4128634;28;20054;-65
2022/08/09 05:11:52;;;;;;;1.52;0.98;;;31.40;99.90;;;;;;4129639;28;20093;-65
2022/08/09 05:14:02;;;;;;;4.30;0.70;;;31.50;99.90;;;;;;4130064;28;20054;-66
2022/08/09 05:16:09;;;;;;;2.65;0.90;;;31.60;99.90;;;;;;4129820;28;20058;-65
2022/08/09 05:18:17;;;;;;;2.22;0.75;;;31.70;99.90;;;;;;4128583;28;20768;-67
2022/08/09 05:20:43;;;;;;;2.42;0.60;;;31.70;99.50;;;;;;4129290;28;20050;-66
2022/08/09 05:22:52;;;;;;;2.00;0.60;;;31.60;99.20;;;;;;4129610;28;20042;-66
2022/08/09 05:25:16;;;;;;;1.35;0.50;;;31.60;99.20;;;;;;4140237;28;20080;-66
2022/08/09 05:27:23;;;;;;;1.25;0.50;;;31.70;99.00;;;;;;4129557;28;20046;-65
2022/08/09 05:29:28;;;;;;;2.40;0.50;;;31.70;99.10;;;;;;4129986;28;20042;-64
2022/08/09 05:31:37;;;;;;;2.35;0.80;;;31.70;98.80;;;;;;4129047;28;20042;-64
2022/08/09 05:33:54;;;;;;;0.85;0.40;;;31.70;97.60;;;;;;4129773;28;20072;-64
2022/08/09 05:36:00;;;;;;;1.05;0.40;;;31.60;98.20;;;;;;4129375;28;20042;-63
2022/08/09 05:38:05;;;;;;;2.30;0.50;;;31.70;98.20;;;;;;4129698;28;20085;-64
2022/08/09 05:40:12;;;;;;;1.48;0.50;;;31.70;98.40;;;;;;4129817;28;20054;-64
2022/08/09 05:42:20;;;;;;;2.65;0.47;;;31.70;98.10;;;;;;4129383;28;20134;-64
2022/08/09 05:44:31;;;;;;;1.27;0.55;;;31.50;97.30;;;;;;4129462;28;20043;-64
2022/08/09 05:46:40;;;;;;;2.88;0.30;;;31.50;97.20;;;;;;4129433;28;20050;-64
2022/08/09 05:48:48;;;;;;;2.63;0.50;;;31.60;97.00;;;;;;4128864;28;20125;-65
2022/08/09 05:51:01;;;;;;;1.63;0.38;;;31.50;96.10;;;;;;4129174;28;20604;-64
2022/08/09 05:53:25;;;;;;;1.23;0.30;;;31.20;96.10;;;;;;4129477;28;20061;-64
2022/08/09 05:55:36;;;;;;;1.55;0.30;;;31.20;96.50;;;;;;4129439;28;20046;-64
2022/08/09 05:57:41;;;;;;;1.27;0.30;;;31.30;96.80;;;;;;4129121;28;20050;-65
2022/08/09 06:00:07;;;;;;;1.65;0.30;;;31.20;96.60;;;;;;4078903;29;20062;-65
2022/08/09 06:02:13;;;;;;;0.82;0.30;;;31.10;96.30;;;;;;4094095;28;20048;-65
2022/08/09 06:04:20;;;;;;;3.50;0.50;;;30.90;96.30;;;;;;4070346;29;20468;-64
2022/08/09 06:06:27;;;;;;;3.40;0.50;;;30.90;96.50;;;;;;4077588;28;20190;-65
2022/08/09 06:08:34;;;;;;;1.73;0.50;;;30.80;97.00;;;;;;4099946;28;20117;-64
2022/08/09 06:10:40;;;;;;;1.33;0.40;;;30.80;97.40;;;;;;4103897;28;20055;-65
2022/08/09 06:12:44;;;;;;;1.17;0.43;;;30.90;97.00;;;;;;4095038;29;20137;-64
2022/08/09 06:15:00;;;;;;;1.73;0.60;;;30.70;97.40;;;;;;4090531;29;20535;-65
2022/08/09 06:17:09;;;;;;;1.85;1.02;;;30.70;97.20;;;;;;4094792;29;20418;-65
2022/08/09 06:19:16;;;;;;;1.27;0.60;;;30.70;97.60;;;;;;4126023;28;20046;-65
2022/08/09 06:21:23;;;;;;;1.27;0.57;;;30.60;97.40;;;;;;4128970;28;20541;-64
2022/08/09 06:23:30;;;;;;;3.65;0.50;;;30.50;97.40;;;;;;4128238;28;20046;-64
2022/08/09 06:25:54;;;;;;;2.97;0.50;;;30.60;97.70;;;;;;4128850;28;20050;-64
2022/08/09 06:28:04;;;;;;;2.90;0.60;;;30.60;97.20;;;;;;4129300;28;20060;-64
2022/08/09 06:30:09;;;;;;;2.15;0.30;;;30.60;97.60;;;;;;4127831;28;20122;-64
2022/08/09 06:32:18;;;;;;;2.05;0.70;;;30.70;97.40;;;;;;4128866;28;20046;-64
2022/08/09 06:34:45;;;;;;;1.55;0.50;;;30.80;97.10;;;;;;4110897;28;20046;-64
2022/08/09 06:36:55;;;;;;;1.83;0.60;;;30.80;97.00;;;;;;4110567;28;20146;-64
2022/08/09 06:39:02;;;;;;;2.47;0.52;;;30.80;97.20;;;;;;4111048;28;20101;-63
2022/08/09 06:41:15;;;;;;;4.45;1.52;;;30.90;97.10;;;;;;4111402;28;20046;-63
2022/08/09 06:43:21;;;;;;;2.70;1.05;;;30.80;97.70;;;;;;4095830;28;20062;-65
2022/08/09 06:45:29;;;;;;;2.65;0.60;;;30.90;97.70;;;;;;4111388;28;20043;-64
2022/08/09 06:47:57;;;;;;;1.58;0.60;;;30.90;97.10;;;;;;4095016;29;20585;-64
2022/08/09 06:50:05;;;;;;;4.40;0.80;;;31.00;97.10;;;;;;4095434;28;20086;-64
2022/08/09 06:52:21;;;;;;;1.77;0.60;;;31.10;97.20;;;;;;4097539;28;20083;-64
2022/08/09 06:54:27;;;;;;;2.78;0.70;;;31.00;96.80;;;;;;4099153;28;20514;-65
2022/08/09 06:56:32;;;;;;;1.33;0.60;;;30.90;97.10;;;;;;4098838;29;20055;-65
2022/08/09 06:58:37;;;;;;;2.70;0.50;;;31.10;97.10;;;;;;4096084;29;20032;-65
2022/08/09 07:01:02;;;;;;;2.28;0.40;;;31.10;96.90;;;;;;4035103;29;20061;-64
2022/08/09 07:03:07;;;;;;;0.50;0.30;;;31.20;97.10;;;;;;4035184;29;20069;-63
2022/08/09 07:05:15;;;;;;;3.47;0.60;;;31.20;96.90;;;;;;4035454;29;20594;-64
2022/08/09 07:07:20;;;;;;;0.82;0.50;;;31.20;96.80;;;;;;4035298;29;20097;-64
2022/08/09 07:09:45;;;;;;;3.30;0.55;;;31.20;96.80;;;;;;4035317;29;20132;-65
2022/08/09 07:12:04;;;;;;;1.52;0.40;;;31.10;96.70;;;;;;4039290;29;20421;-64
2022/08/09 07:14:17;;;;;;;2.08;0.60;;;31.00;97.00;;;;;;4050862;29;20092;-65
2022/08/09 07:16:29;;;;;;;1.35;0.50;;;31.00;97.10;;;;;;4050377;29;20124;-65
2022/08/09 07:18:51;;;;;;;1.88;0.50;;;31.00;96.90;;;;;;4050605;29;20063;-65
2022/08/09 07:20:57;;;;;;;0.73;0.60;;;31.00;96.80;;;;;;4064206;29;20123;-65
2022/08/09 07:23:01;;;;;;;1.05;0.50;;;31.00;97.80;;;;;;4066153;29;20048;-64
2022/08/09 07:25:20;;;;;;;2.60;0.73;;;31.20;97.60;;;;;;4075287;29;20106;-64
2022/08/09 07:27:26;;;;;;;2.42;0.63;;;31.30;97.40;;;;;;4094947;29;20047;-64
2022/08/09 07:29:44;;;;;;;4.07;0.57;;;31.30;96.90;;;;;;4093181;29;20504;-64
2022/08/09 07:31:49;;;;;;;1.52;0.52;;;31.10;97.10;;;;;;4094325;28;20093;-64
2022/08/09 07:33:55;;;;;;;2.10;0.43;;;31.20;97.40;;;;;;4126533;28;20517;-64
2022/08/09 07:36:02;;;;;;;1.75;0.40;;;31.30;97.10;;;;;;4129871;28;20433;-64
2022/08/09 07:38:07;;;;;;;3.53;0.45;;;31.20;97.10;;;;;;4129343;28;20096;-65
2022/08/09 07:40:16;;;;;;;1.00;0.30;;;31.30;97.10;;;;;;4129605;28;20511;-64
2022/08/09 07:42:23;;;;;;;1.98;0.50;;;31.40;97.20;;;;;;4130829;28;20042;-65
2022/08/09 07:44:35;;;;;;;1.27;0.50;;;31.30;96.90;;;;;;4126910;28;20500;-63
2022/08/09 07:46:55;;;;;;;0.80;0.63;;;31.40;97.00;;;;;;4130609;28;20101;-63
2022/08/09 07:49:01;;;;;;;1.63;0.45;;;31.60;97.00;;;;;;4130957;28;20040;-64
2022/08/09 07:51:10;;;;;;;6.28;1.77;;;31.60;96.70;;;;;;4129250;28;20502;-65
2022/08/09 07:53:38;;;;;;;1.55;0.70;;;31.60;96.70;;;;;;4127456;28;20580;-65
2022/08/09 07:56:03;;;;;;;1.55;0.50;;;31.70;96.70;;;;;;4127979;28;20516;-64
2022/08/09 07:58:09;;;;;;;1.95;0.77;;;31.50;96.70;;;;;;4113580;28;20057;-64
2022/08/09 08:00:17;;;;;;;3.10;0.70;;;31.70;97.00;;;;;;4127784;28;20046;-64
2022/08/09 08:02:38;;;;;;;2.20;0.68;;;31.70;97.20;;;;;;4143189;28;20050;-65
2022/08/09 08:04:47;;;;;;;0.50;0.40;;;31.80;97.20;;;;;;4134039;28;20085;-65
2022/08/09 08:06:56;;;;;;;2.60;0.70;;;31.90;97.10;;;;;;4127619;28;20030;-65
2022/08/09 08:09:17;;;;;;;2.53;0.50;;;32.00;97.20;;;;;;4128304;28;20045;-65
2022/08/09 08:11:44;;;;;;;1.48;0.90;;;32.10;96.90;;;;;;4127863;28;20046;-65
2022/08/09 08:14:11;;;;;;;2.45;0.68;;;32.00;96.50;;;;;;4110096;28;20059;-65
2022/08/09 08:16:16;;;;;;;1.08;0.50;;;32.00;97.10;;;;;;4111713;28;20059;-65
2022/08/09 08:18:36;;;;;;;2.15;0.40;;;32.00;97.00;;;;;;4111641;28;20086;-65
2022/08/09 08:20:45;;;;;;;1.08;0.30;;;32.00;97.00;;;;;;4079622;29;20055;-66
2022/08/09 08:22:50;;;;;;;1.75;0.60;;;32.20;96.90;;;;;;4111515;28;20039;-65
2022/08/09 08:25:01;;;;;;;0.95;0.47;;;32.30;96.80;;;;;;4110280;28;20063;-65
2022/08/09 08:27:15;;;;;;;1.80;0.50;;;32.40;96.40;;;;;;4095644;29;20123;-65
2022/08/09 08:29:20;;;;;;;1.75;0.60;;;32.50;96.30;;;;;;4111759;28;20533;-65
2022/08/09 08:31:30;;;;;;;4.35;0.75;;;32.50;96.60;;;;;;4101674;28;20058;-65
2022/08/09 08:33:57;;;;;;;3.20;0.90;;;32.50;96.60;;;;;;4056770;29;20056;-64
2022/08/09 08:36:02;;;;;;;1.77;0.50;;;32.50;95.90;;;;;;4056250;29;20136;-65
2022/08/09 08:38:09;;;;;;;2.17;0.90;;;32.60;96.20;;;;;;4063200;29;20056;-65
2022/08/09 08:40:14;;;;;;;1.27;0.47;;;32.60;95.90;;;;;;4064060;29;20103;-66
2022/08/09 08:42:21;;;;;;;1.67;0.40;;;32.60;95.70;;;;;;4063487;29;20047;-65
2022/08/09 08:44:36;;;;;;;1.33;0.30;;;32.50;95.70;;;;;;4063461;29;20047;-64
2022/08/09 08:46:43;;;;;;;0.90;0.40;;;32.50;95.70;;;;;;4063248;29;20143;-64
2022/08/09 08:49:06;;;;;;;0.45;0.43;;;32.50;95.40;;;;;;4063681;29;20052;-64
2022/08/09 08:51:14;;;;;;;1.20;0.70;;;32.50;95.40;;;;;;4062042;28;20056;-64
2022/08/09 08:53:20;;;;;;;2.60;0.70;;;32.50;95.60;;;;;;4092832;28;20881;-63
2022/08/09 08:55:35;;;;;;;1.80;0.57;;;32.50;95.60;;;;;;4093816;28;20106;-64
2022/08/09 08:57:46;;;;;;;2.67;0.88;;;32.60;95.00;;;;;;4094109;28;20059;-64
2022/08/09 08:59:59;;;;;;;1.77;0.52;;;32.60;95.50;;;;;;4062180;29;20060;-64
2022/08/09 09:02:07;;;;;;;2.85;0.40;;;32.60;95.60;;;;;;4093781;28;20051;-64
2022/08/09 09:04:13;;;;;;;3.35;0.65;;;32.50;95.50;;;;;;4093986;28;20047;-65
2022/08/09 09:06:31;;;;;;;1.52;0.50;;;32.50;95.60;;;;;;4127707;28;20042;-64
2022/08/09 09:08:37;;;;;;;0.60;0.50;;;32.50;95.70;;;;;;4129100;28;20101;-64
2022/08/09 09:10:46;;;;;;;2.80;0.90;;;32.40;95.60;;;;;;4128079;28;20046;-64
2022/08/09 09:12:53;;;;;;;1.40;0.60;;;32.40;95.80;;;;;;4128009;28;20687;-64
2022/08/09 09:14:59;;;;;;;1.80;0.60;;;32.40;96.00;;;;;;4124894;28;20082;-64
2022/08/09 09:17:06;;;;;;;2.08;0.60;;;32.30;96.30;;;;;;4126053;28;20377;-64
2022/08/09 09:19:19;;;;;;;2.90;0.40;;;32.40;96.30;;;;;;4125038;28;20100;-64
2022/08/09 09:21:54;;;;;;;;;;;32.40;96.10;;;;;;4126870;28;20040;-64
2022/08/09 09:24:03;;;;;;;6.18;3.90;;;32.30;96.60;;;;;;4126677;28;19975;-64
2022/08/09 09:26:24;;;;;;;5.75;2.45;;;32.50;96.40;;;;;;4125275;28;20504;-65
2022/08/09 09:28:34;;;;;;;2.60;1.60;;;32.50;96.10;;;;;;4124873;28;20428;-64
2022/08/09 09:31:00;;;;;;;2.22;1.23;;;32.60;96.10;;;;;;4131723;28;20393;-64
2022/08/09 09:33:09;;;;;;;1.95;0.80;;;32.70;96.00;;;;;;4134345;28;20050;-64
2022/08/09 09:35:19;;;;;;;2.63;0.80;;;32.70;95.80;;;;;;4132782;28;20057;-65
2022/08/09 09:37:28;;;;;;;1.80;0.68;;;32.60;96.10;;;;;;4134771;28;20080;-64
2022/08/09 09:39:39;;;;;;;1.48;0.63;;;32.50;96.10;;;;;;4137289;28;20653;-64
2022/08/09 09:41:59;;;;;;;1.00;0.45;;;32.60;96.10;;;;;;4138080;28;20128;-65
2022/08/09 09:44:06;;;;;;;3.33;0.65;;;32.60;96.00;;;;;;4135518;28;20111;-64
2022/08/09 09:46:15;;;;;;;1.65;0.60;;;32.50;96.00;;;;;;4135626;28;20041;-65
2022/08/09 09:48:54;;;;;;;2.00;0.57;;;32.50;95.90;;;;;;4135940;28;20148;-65
2022/08/09 09:51:01;;;;;;;2.92;0.82;;;32.40;96.30;;;;;;4134899;28;20456;-66
2022/08/09 09:53:06;;;;;;;1.27;0.70;;;32.40;96.10;;;;;;4129371;28;20084;-65
2022/08/09 09:55:14;;;;;;;1.73;0.70;;;32.40;95.80;;;;;;4138102;28;20060;-65
2022/08/09 09:57:38;;;;;;;2.03;0.57;;;32.30;95.90;;;;;;4138053;28;20050;-65
2022/08/09 10:00:03;;;;;;;3.38;1.10;;;32.30;96.10;;;;;;4133876;28;20141;-65
2022/08/09 10:02:11;;;;;;;4.53;1.73;;;32.30;96.70;;;;;;4131430;28;20053;-66
2022/08/09 10:04:20;;;;;;;2.53;0.95;;;32.10;97.10;;;;;;4131203;28;20042;-66
2022/08/09 10:06:42;;;;;;;4.32;0.85;;;32.00;97.40;;;;;;4131167;28;20043;-63
2022/08/09 10:09:02;;;;;;;1.65;0.90;;;31.90;97.80;;;;;;4132492;28;20502;-63
2022/08/09 10:11:27;;;;;;;5.03;1.10;;;31.90;98.20;;;;;;4138401;28;20096;-64
2022/08/09 10:13:52;;;;;;;2.22;1.30;;;31.80;98.50;;;;;;4138450;28;20130;-65
2022/08/09 10:15:58;;;;;;;3.17;1.23;;;31.70;98.60;;;;;;4137877;28;20081;-65
2022/08/09 10:18:25;;;;;;;3.03;0.85;;;31.70;98.40;;;;;;4137564;28;20039;-65
2022/08/09 10:20:32;;;;;;;1.30;0.65;;;31.60;98.80;;;;;;4136066;28;20045;-65
2022/08/09 10:22:49;;;;;;;2.22;0.70;;;31.60;98.80;;;;;;4138018;28;20026;-65
2022/08/09 10:25:02;;;;;;;3.92;0.90;;;31.50;99.10;;;;;;4137549;28;20125;-65
2022/08/09 10:27:17;;;;;;;3.25;1.20;;;31.40;99.10;;;;;;4152909;28;20088;-64
2022/08/09 10:29:32;;;;;;;2.88;2.20;;;31.40;99.10;;;;;;4136479;28;20069;-64
2022/08/09 10:31:56;;;;;;;4.97;2.00;;;31.40;99.10;;;;;;4140578;28;20041;-65
2022/08/09 10:34:21;;;;;;;2.97;1.23;;;31.30;99.20;;;;;;4140722;28;20050;-65
2022/08/09 10:36:39;;;;;;;3.28;1.00;;;31.00;98.80;;;;;;4133296;28;20058;-64
2022/08/09 10:38:45;;;;;;;1.33;0.77;;;30.40;96.70;;;;;;4135755;28;20069;-65
2022/08/09 10:40:59;;;;;;;3.38;0.90;;;30.20;97.00;;;;;;4135113;28;20050;-66
2022/08/09 10:43:05;;;;;;;2.80;0.98;;;30.10;97.00;;;;;;4135309;28;20057;-65
2022/08/09 10:45:13;;;;;;;3.03;0.98;;;30.00;97.10;;;;;;4135039;28;20198;-66
2022/08/09 10:47:46;;;;;;;2.03;0.90;;;29.80;97.00;;;;;;4139412;28;20047;-65
2022/08/09 10:53:11;;;;;;;3.55;0.90;;;29.50;97.30;;;;;;4137799;28;20085;-65
2022/08/09 10:55:26;;;;;;;2.80;0.88;;;29.30;97.40;;;;;;4138310;28;20049;-65
2022/08/09 10:57:40;;;;;;;4.78;0.80;;;29.20;98.10;;;;;;4137881;28;20046;-66
2022/08/09 10:59:51;;;;;;;6.40;1.85;;;29.00;98.90;;;;;;4137373;28;20077;-65
2022/08/09 11:02:00;;;;;;;6.70;1.63;;;28.80;99.90;;;;;;4137597;28;20424;-64
2022/08/09 11:04:26;;;;;;;5.63;1.67;;;28.30;99.90;;;;;;4132788;28;20049;-64
2022/08/09 11:06:36;;;;;;;6.57;1.80;;;28.40;99.90;;;;;;4130778;28;20046;-63
2022/08/09 11:08:47;;;;;;;3.20;1.25;;;28.70;99.90;;;;;;4132725;28;20074;-63
2022/08/09 11:10:56;;;;;;;5.38;1.70;;;28.80;99.90;;;;;;4160930;28;20528;-63
2022/08/09 11:13:18;;;;;;;5.93;1.48;;;28.80;99.90;;;;;;4132120;28;20038;-63
2022/08/09 11:15:43;;;;;;;4.88;1.08;;;28.80;99.90;;;;;;4132172;28;20050;-63
2022/08/09 11:18:11;;;;;;;4.10;1.10;;;28.90;99.90;;;;;;4133474;28;20400;-63
2022/08/09 11:20:38;;;;;;;4.50;1.55;;;29.00;99.90;;;;;;4131406;28;20078;-63
2022/08/09 11:23:01;;;;;;;5.63;1.77;;;28.90;99.90;;;;;;4131950;28;20433;-63
2022/08/09 11:25:13;;;;;;;3.00;1.10;;;28.90;99.90;;;;;;4132661;28;20041;-63
2022/08/09 11:27:35;;;;;;;3.15;1.30;;;29.00;99.90;;;;;;4132132;28;20092;-64
2022/08/09 11:29:59;;;;;;;3.58;1.20;;;29.10;99.90;;;;;;4131575;28;20050;-62
2022/08/09 11:32:47;;;;;;;4.53;0.88;;;29.10;99.90;;;;;;4130554;28;20499;-63
2022/08/09 11:34:53;;;;;;;4.80;1.00;;;29.10;99.90;;;;;;4097444;28;20462;-62
2022/08/09 11:36:59;;;;;;;3.28;0.93;;;29.10;99.90;;;;;;4131325;28;20056;-63
2022/08/09 11:39:06;;;;;;;3.55;1.35;;;29.00;99.90;;;;;;4131843;28;20045;-64